createdAt,value
2022-09-28T00:01:19.340Z,2.90
2022-09-28T00:03:51.853Z,3.05
2022-09-28T00:06:22.157Z,3.55
2022-09-28T00:08:50.977Z,3.78
2022-09-28T00:11:21.364Z,3.47
2022-09-28T00:13:51.471Z,4.20
2022-09-28T00:16:21.347Z,6.30
2022-09-28T00:18:51.534Z,7.07
2022-09-28T00:21:21.698Z,7.03
2022-09-28T00:24:10.837Z,7.45
2022-09-28T00:26:40.762Z,8.07
2022-09-28T00:29:15.516Z,8.60
2022-09-28T00:31:43.735Z,10.02
2022-09-28T00:34:13.868Z,9.70
2022-09-28T00:36:45.779Z,8.95
2022-09-28T00:39:15.621Z,9.73
2022-09-28T00:41:44.115Z,10.00
2022-09-28T00:44:45.614Z,8.48
2022-09-28T00:47:31.343Z,8.18
2022-09-28T00:50:04.654Z,8.68
2022-09-28T00:52:36.425Z,7.70
2022-09-28T00:55:09.584Z,6.82
2022-09-28T00:57:39.726Z,6.55
2022-09-28T01:00:09.235Z,6.53
2022-09-28T01:02:37.511Z,5.32
2022-09-28T01:05:10.369Z,5.03
2022-09-28T01:07:38.923Z,4.20
2022-09-28T01:10:08.254Z,4.35
2022-09-28T01:12:36.477Z,4.75
2022-09-28T01:15:06.385Z,5.78
2022-09-28T01:17:49.983Z,5.35
2022-09-28T01:20:50.206Z,4.50
2022-09-28T01:23:53.374Z,4.50
2022-09-28T01:26:39.455Z,5.18
2022-09-28T01:29:17.871Z,5.78
2022-09-28T01:31:51.544Z,5.30
2022-09-28T01:34:25.514Z,6.00
2022-09-28T01:36:57.429Z,5.70
2022-09-28T01:39:30.694Z,5.63
2022-09-28T01:42:05.852Z,6.38
2022-09-28T01:44:40.027Z,6.38
2022-09-28T01:47:12.053Z,6.28
2022-09-28T01:49:45.149Z,5.25
2022-09-28T01:52:18.912Z,4.57
2022-09-28T01:54:53.306Z,5.38
2022-09-28T01:57:28.060Z,6.35
2022-09-28T02:00:01.328Z,5.07
2022-09-28T02:02:34.091Z,5.30
2022-09-28T02:05:08.912Z,5.25
2022-09-28T02:07:42.593Z,4.85
2022-09-28T02:10:15.257Z,4.85
2022-09-28T02:12:47.878Z,5.05
2022-09-28T02:15:20.689Z,5.78
2022-09-28T02:17:49.667Z,3.88
2022-09-28T02:20:18.236Z,3.60
2022-09-28T02:22:51.278Z,4.95
2022-09-28T02:25:29.180Z,3.40
2022-09-28T02:28:02.042Z,5.22
2022-09-28T02:30:32.125Z,4.28
2022-09-28T02:33:06.901Z,4.30
2022-09-28T02:35:35.473Z,4.18
2022-09-28T02:38:03.816Z,4.75
2022-09-28T02:40:34.870Z,4.78
2022-09-28T02:43:15.230Z,5.68
2022-09-28T02:45:52.715Z,4.75
2022-09-28T02:48:44.093Z,4.75
2022-09-28T02:51:25.700Z,5.28
2022-09-28T02:54:23.560Z,5.43
2022-09-28T02:57:12.165Z,5.63
2022-09-28T03:00:03.220Z,5.55
2022-09-28T03:02:37.062Z,5.30
2022-09-28T03:05:13.482Z,5.00
2022-09-28T03:07:47.081Z,4.90
2022-09-28T03:10:20.809Z,4.80
2022-09-28T03:12:50.632Z,4.50
2022-09-28T03:15:25.444Z,5.10
2022-09-28T03:17:54.099Z,4.80
2022-09-28T03:20:22.549Z,4.70
2022-09-28T03:23:12.293Z,5.22
2022-09-28T03:25:39.339Z,4.28
2022-09-28T03:28:07.453Z,5.60
2022-09-28T03:30:36.998Z,4.40
2022-09-28T03:33:07.181Z,5.90
2022-09-28T03:35:35.662Z,5.50
2022-09-28T03:38:03.880Z,7.72
2022-09-28T03:40:32.160Z,6.22
2022-09-28T03:43:01.916Z,6.30
2022-09-28T03:45:30.382Z,6.88
2022-09-28T03:48:00.358Z,6.47
2022-09-28T03:50:28.692Z,7.97
2022-09-28T03:52:56.829Z,7.03
2022-09-28T03:55:25.043Z,7.68
2022-09-28T03:57:56.231Z,7.50
2022-09-28T04:00:24.446Z,7.60
2022-09-28T04:02:52.706Z,7.88
2022-09-28T04:05:22.209Z,7.93
2022-09-28T04:07:50.324Z,7.00
2022-09-28T04:10:18.509Z,8.55
2022-09-28T04:12:47.094Z,7.47
2022-09-28T04:15:15.378Z,6.75
2022-09-28T04:17:45.069Z,6.65
2022-09-28T04:20:13.167Z,7.82
2022-09-28T04:22:43.370Z,7.65
2022-09-28T04:25:11.819Z,8.05
2022-09-28T04:27:57.042Z,9.65
2022-09-28T04:30:25.677Z,7.88
2022-09-28T04:32:53.894Z,8.18
2022-09-28T04:35:21.966Z,8.65
2022-09-28T04:37:51.689Z,8.75
2022-09-28T04:40:19.889Z,7.20
2022-09-28T04:42:54.686Z,6.00
2022-09-28T04:45:22.777Z,6.82
2022-09-28T04:47:50.947Z,6.80
2022-09-28T04:50:19.149Z,6.32
2022-09-28T04:52:47.229Z,6.45
2022-09-28T04:55:17.861Z,6.20
2022-09-28T04:57:46.086Z,6.37
2022-09-28T05:00:15.397Z,5.95
2022-09-28T05:02:43.588Z,5.40
2022-09-28T05:05:11.845Z,5.00
2022-09-28T05:07:41.881Z,5.50
2022-09-28T05:10:10.312Z,4.78
2022-09-28T05:12:39.963Z,4.90
2022-09-28T05:15:08.763Z,4.93
2022-09-28T05:17:36.875Z,4.82
2022-09-28T05:20:05.710Z,5.22
2022-09-28T05:22:34.503Z,5.03
2022-09-28T05:25:02.995Z,5.28
2022-09-28T05:27:31.176Z,4.93
2022-09-28T05:30:00.639Z,5.15
2022-09-28T05:32:28.877Z,4.88
2022-09-28T05:34:57.621Z,4.85
2022-09-28T05:37:25.761Z,4.45
2022-09-28T05:39:53.919Z,4.60
2022-09-28T05:42:22.071Z,4.15
2022-09-28T05:44:50.358Z,4.25
2022-09-28T05:47:19.899Z,5.55
2022-09-28T05:49:48.009Z,4.22
2022-09-28T05:52:16.198Z,5.15
2022-09-28T05:54:44.576Z,5.07
2022-09-28T05:57:12.832Z,5.60
2022-09-28T05:59:40.957Z,5.75
2022-09-28T06:02:09.180Z,6.43
2022-09-28T06:04:38.738Z,5.40
2022-09-28T06:07:06.956Z,5.65
2022-09-28T06:09:35.059Z,5.32
2022-09-28T06:12:03.254Z,4.82
2022-09-28T06:14:31.487Z,4.80
2022-09-28T06:16:59.641Z,4.72
2022-09-28T06:19:27.832Z,4.80
2022-09-28T06:21:59.292Z,4.45
2022-09-28T06:24:27.717Z,4.38
2022-09-28T06:26:55.763Z,5.00
2022-09-28T06:29:23.867Z,4.57
2022-09-28T06:31:52.286Z,4.00
2022-09-28T06:34:21.608Z,4.68
2022-09-28T06:36:49.837Z,4.93
2022-09-28T06:39:19.448Z,5.13
2022-09-28T06:41:47.648Z,5.15
2022-09-28T06:44:15.778Z,4.78
2022-09-28T06:46:43.909Z,4.20
2022-09-28T06:49:15.066Z,4.82
2022-09-28T06:51:47.502Z,6.20
2022-09-28T06:54:15.718Z,5.03
2022-09-28T06:56:45.365Z,5.13
2022-09-28T06:59:13.652Z,4.72
2022-09-28T07:01:41.924Z,4.07
2022-09-28T07:04:10.249Z,5.35
2022-09-28T07:06:38.683Z,6.13
2022-09-28T07:09:26.838Z,5.32
2022-09-28T07:11:57.317Z,5.65
2022-09-28T07:14:45.979Z,5.78
2022-09-28T07:17:14.936Z,4.88
2022-09-28T07:19:43.298Z,5.60
2022-09-28T07:22:18.887Z,5.40
2022-09-28T07:24:49.177Z,5.55
2022-09-28T07:27:19.688Z,5.90
2022-09-28T07:29:47.771Z,5.20
2022-09-28T07:32:15.980Z,5.00
2022-09-28T07:34:44.826Z,4.97
2022-09-28T07:37:13.545Z,5.50
2022-09-28T07:39:59.978Z,5.65
2022-09-28T07:42:30.453Z,5.07
2022-09-28T07:44:58.968Z,5.13
2022-09-28T07:47:33.861Z,4.32
2022-09-28T07:50:03.249Z,5.55
2022-09-28T07:52:31.472Z,4.75
2022-09-28T07:55:03.327Z,4.82
2022-09-28T07:57:36.469Z,4.32
2022-09-28T08:00:08.114Z,4.32
2022-09-28T08:02:36.887Z,4.53
2022-09-28T08:05:05.332Z,4.18
2022-09-28T08:07:34.681Z,4.07
2022-09-28T08:10:03.038Z,4.05
2022-09-28T08:12:31.273Z,3.30
2022-09-28T08:15:01.167Z,3.63
2022-09-28T08:17:29.730Z,2.90
2022-09-28T08:20:15.431Z,2.85
2022-09-28T08:22:43.566Z,2.90
2022-09-28T08:25:11.857Z,2.75
2022-09-28T08:27:40.000Z,2.47
2022-09-28T08:30:11.469Z,2.80
2022-09-28T08:32:39.887Z,2.50
2022-09-28T08:35:08.571Z,2.40
2022-09-28T08:37:36.924Z,2.97
2022-09-28T08:40:05.825Z,3.63
2022-09-28T08:42:41.512Z,3.40
2022-09-28T08:45:15.576Z,3.65
2022-09-28T08:48:08.663Z,3.72
2022-09-28T08:50:54.220Z,3.22
2022-09-28T08:53:35.554Z,3.47
2022-09-28T08:56:08.818Z,3.72
2022-09-28T08:58:42.789Z,4.35
2022-09-28T09:01:17.338Z,2.75
2022-09-28T09:03:46.092Z,3.60
2022-09-28T09:06:26.228Z,3.42
2022-09-28T09:09:05.197Z,3.70
2022-09-28T09:11:49.009Z,2.85
2022-09-28T09:14:39.298Z,1.98
2022-09-28T09:17:20.016Z,0.98
2022-09-28T09:19:54.825Z,1.50
2022-09-28T09:22:39.442Z,0.90
2022-09-28T09:25:18.473Z,1.38
2022-09-28T09:28:03.645Z,0.95
2022-09-28T09:30:46.465Z,0.80
2022-09-28T09:33:39.709Z,1.65
2022-09-28T09:36:19.555Z,0.70
2022-09-28T09:39:01.817Z,0.90
2022-09-28T09:41:43.452Z,1.23
2022-09-28T09:44:35.394Z,1.00
2022-09-28T09:47:09.042Z,1.90
2022-09-28T09:49:42.843Z,0.73
2022-09-28T09:52:20.106Z,0.73
2022-09-28T09:54:55.581Z,0.80
2022-09-28T09:57:30.743Z,0.77
2022-09-28T10:00:00.277Z,0.80
2022-09-28T10:02:31.863Z,0.85
2022-09-28T10:05:06.014Z,1.20
2022-09-28T10:07:43.235Z,1.35
2022-09-28T10:10:15.716Z,1.48
2022-09-28T10:12:43.949Z,0.60
2022-09-28T10:15:17.677Z,0.93
2022-09-28T10:17:46.022Z,0.95
2022-09-28T10:20:17.146Z,1.17
2022-09-28T10:22:45.632Z,0.75
2022-09-28T10:25:14.517Z,0.90
2022-09-28T10:27:46.568Z,1.33
2022-09-28T10:30:19.244Z,1.02
2022-09-28T10:32:48.843Z,0.70
2022-09-28T10:35:27.710Z,1.27
2022-09-28T10:37:59.375Z,1.05
2022-09-28T10:40:32.903Z,1.25
2022-09-28T10:43:03.071Z,1.75
2022-09-28T10:45:37.425Z,0.75
2022-09-28T10:48:16.297Z,0.90
2022-09-28T10:50:59.388Z,0.73
2022-09-28T10:53:27.976Z,1.10
2022-09-28T10:56:02.466Z,1.13
2022-09-28T10:58:37.403Z,1.20
2022-09-28T11:01:09.731Z,1.02
2022-09-28T11:03:50.207Z,0.70
2022-09-28T11:06:25.993Z,0.85
2022-09-28T11:08:56.047Z,1.75
2022-09-28T11:11:25.192Z,0.60
2022-09-28T11:13:55.274Z,0.60
2022-09-28T11:16:27.105Z,0.60
2022-09-28T11:18:55.276Z,0.60
2022-09-28T11:21:27.637Z,0.85
2022-09-28T11:24:05.871Z,0.60
2022-09-28T11:26:42.658Z,0.80
2022-09-28T11:29:27.866Z,0.80
2022-09-28T11:32:01.373Z,0.40
2022-09-28T11:34:57.504Z,0.65
2022-09-28T11:37:41.655Z,0.82
2022-09-28T11:40:26.019Z,0.55
2022-09-28T11:45:53.931Z,0.77
2022-09-28T11:48:26.996Z,0.55
2022-09-28T11:50:59.938Z,0.40
2022-09-28T11:53:36.970Z,0.82
2022-09-28T11:56:15.964Z,0.40
2022-09-28T11:58:48.385Z,0.88
2022-09-28T12:01:24.148Z,0.60
2022-09-28T12:03:56.847Z,1.85
2022-09-28T12:06:32.528Z,1.20
2022-09-28T12:09:12.110Z,1.15
2022-09-28T12:11:45.188Z,0.93
2022-09-28T12:14:21.836Z,1.65
2022-09-28T12:17:11.266Z,0.80
2022-09-28T12:19:48.469Z,0.70
2022-09-28T12:22:20.850Z,0.80
2022-09-28T12:24:54.179Z,0.43
2022-09-28T12:27:28.535Z,1.20
2022-09-28T12:30:02.123Z,0.80
2022-09-28T12:32:37.469Z,0.88
2022-09-28T12:35:13.355Z,1.00
2022-09-28T12:38:08.968Z,1.55
2022-09-28T12:40:49.395Z,1.45
2022-09-28T12:43:40.715Z,0.70
2022-09-28T12:46:25.178Z,1.00
2022-09-28T12:52:19.174Z,0.70
2022-09-28T12:55:06.065Z,0.90
2022-09-28T12:57:50.912Z,0.50
2022-09-28T13:00:23.568Z,0.70
2022-09-28T13:03:19.306Z,0.63
2022-09-28T13:06:16.208Z,0.80
2022-09-28T13:08:55.469Z,0.68
2022-09-28T13:11:34.802Z,0.75
2022-09-28T13:14:33.869Z,0.95
2022-09-28T13:17:12.118Z,1.10
2022-09-28T13:19:52.387Z,1.00
2022-09-28T13:22:33.725Z,0.90
2022-09-28T13:25:11.723Z,0.70
2022-09-28T13:27:45.515Z,1.05
2022-09-28T13:30:17.376Z,0.77
2022-09-28T13:32:46.853Z,1.00
2022-09-28T13:35:19.578Z,2.33
2022-09-28T13:37:47.904Z,1.45
2022-09-28T13:40:16.245Z,1.92
2022-09-28T13:43:19.415Z,1.10
2022-09-28T13:45:56.856Z,0.80
2022-09-28T13:48:35.856Z,1.13
2022-09-28T13:51:13.851Z,0.85
2022-09-28T13:54:03.351Z,0.90
2022-09-28T13:56:38.912Z,0.77
2022-09-28T13:59:16.832Z,1.15
2022-09-28T14:01:55.755Z,2.17
2022-09-28T14:04:25.413Z,0.90
2022-09-28T14:06:57.692Z,0.57
2022-09-28T14:09:42.108Z,1.30
2022-09-28T14:12:44.543Z,0.60
2022-09-28T14:15:45.258Z,0.70
2022-09-28T14:18:26.900Z,0.93
2022-09-28T14:21:24.368Z,0.90
2022-09-28T14:24:15.587Z,1.00
2022-09-28T14:27:11.589Z,1.55
2022-09-28T14:29:40.518Z,0.68
2022-09-28T14:32:24.742Z,1.13
2022-09-28T14:35:04.666Z,1.73
2022-09-28T14:37:52.630Z,1.30
2022-09-28T14:40:45.865Z,1.40
2022-09-28T14:43:27.435Z,1.08
2022-09-28T14:46:36.952Z,0.95
2022-09-28T14:49:26.849Z,1.30
2022-09-28T14:52:05.401Z,1.25
2022-09-28T14:54:50.274Z,1.20
2022-09-28T14:57:21.449Z,1.15
2022-09-28T14:59:49.715Z,0.90
2022-09-28T15:02:25.191Z,0.98
2022-09-28T15:04:59.928Z,0.70
2022-09-28T15:07:34.437Z,0.77
2022-09-28T15:10:03.493Z,0.90
2022-09-28T15:12:32.717Z,0.95
2022-09-28T15:15:03.591Z,1.42
2022-09-28T15:17:39.516Z,0.80
2022-09-28T15:20:22.760Z,1.13
2022-09-28T15:22:57.141Z,0.82
2022-09-28T15:25:27.009Z,0.95
2022-09-28T15:27:56.848Z,0.80
2022-09-28T15:30:28.571Z,0.80
2022-09-28T15:33:17.878Z,0.60
2022-09-28T15:35:49.998Z,0.82
2022-09-28T15:38:19.624Z,0.77
2022-09-28T15:40:48.604Z,2.55
2022-09-28T15:43:29.137Z,0.90
2022-09-28T15:46:02.786Z,0.70
2022-09-28T15:48:40.812Z,1.00
2022-09-28T15:51:11.831Z,0.70
2022-09-28T15:53:56.225Z,1.00
2022-09-28T15:56:24.517Z,0.63
2022-09-28T15:59:12.552Z,0.80
2022-09-28T16:01:42.311Z,0.85
2022-09-28T16:04:40.489Z,0.70
2022-09-28T16:07:32.272Z,0.70
2022-09-28T16:10:27.229Z,0.70
2022-09-28T16:12:58.928Z,0.73
2022-09-28T16:15:30.281Z,0.93
2022-09-28T16:18:03.206Z,0.60
2022-09-28T16:20:34.376Z,1.02
2022-09-28T16:23:10.041Z,1.08
2022-09-28T16:25:40.238Z,0.50
2022-09-28T16:28:09.111Z,0.60
2022-09-28T16:30:37.413Z,0.70
2022-09-28T16:33:07.676Z,2.00
2022-09-28T16:35:52.115Z,2.63
2022-09-28T16:38:21.127Z,1.13
2022-09-28T16:40:53.932Z,2.38
2022-09-28T16:43:27.173Z,1.02
2022-09-28T16:45:57.695Z,0.80
2022-09-28T16:48:28.092Z,0.85
2022-09-28T16:50:56.309Z,0.60
2022-09-28T16:53:42.205Z,0.80
2022-09-28T16:56:12.701Z,1.05
2022-09-28T16:58:42.641Z,0.80
2022-09-28T17:01:13.053Z,0.85
2022-09-28T17:03:47.046Z,0.60
2022-09-28T17:06:16.261Z,0.60
2022-09-28T17:08:44.840Z,0.70
2022-09-28T17:11:22.768Z,0.63
2022-09-28T17:13:56.906Z,0.60
2022-09-28T17:16:57.291Z,0.50
2022-09-28T17:19:20.624Z,0.70
2022-09-28T17:21:49.449Z,1.25
2022-09-28T17:24:17.531Z,0.65
2022-09-28T17:26:49.122Z,0.85
2022-09-28T17:31:47.806Z,0.75
2022-09-28T17:34:17.055Z,1.10
2022-09-28T17:36:46.246Z,1.17
2022-09-28T17:39:18.467Z,1.13
2022-09-28T17:41:48.361Z,0.90
2022-09-28T17:44:16.771Z,1.10
2022-09-28T17:46:49.179Z,1.00
2022-09-28T17:49:18.804Z,1.00
2022-09-28T17:51:47.211Z,1.30
2022-09-28T17:54:17.059Z,1.08
2022-09-28T17:56:46.297Z,1.90
2022-09-28T17:59:19.006Z,1.92
2022-09-28T18:01:48.330Z,1.75
2022-09-28T18:04:33.768Z,1.55
2022-09-28T18:07:05.545Z,1.90
2022-09-28T18:09:33.834Z,1.73
2022-09-28T18:12:05.428Z,1.88
2022-09-28T18:17:04.566Z,1.30
2022-09-28T18:19:32.857Z,1.20
2022-09-28T18:22:01.839Z,1.13
2022-09-28T18:24:32.523Z,1.67
2022-09-28T18:27:01.153Z,1.43
2022-09-28T18:29:33.077Z,2.95
2022-09-28T18:32:03.607Z,1.40
2022-09-28T18:34:31.783Z,2.50
2022-09-28T18:36:59.898Z,1.70
2022-09-28T18:39:28.121Z,2.00
2022-09-28T18:41:56.283Z,2.22
2022-09-28T18:44:24.905Z,1.75
2022-09-28T18:46:53.063Z,2.13
2022-09-28T18:49:22.814Z,2.00
2022-09-28T18:51:51.214Z,1.60
2022-09-28T18:54:19.490Z,1.50
2022-09-28T18:56:47.598Z,1.38
2022-09-28T18:59:16.036Z,1.20
2022-09-28T19:01:44.373Z,1.40
2022-09-28T19:04:13.745Z,1.50
2022-09-28T19:06:44.852Z,1.70
2022-09-28T19:09:13.600Z,1.63
2022-09-28T19:11:41.788Z,1.58
2022-09-28T19:14:11.687Z,1.60
2022-09-28T19:16:39.809Z,1.80
2022-09-28T19:19:08.930Z,1.60
2022-09-28T19:21:37.266Z,1.52
2022-09-28T19:24:07.154Z,1.67
2022-09-28T19:26:35.558Z,1.40
2022-09-28T19:29:03.933Z,1.80
2022-09-28T19:31:32.719Z,1.55
2022-09-28T19:34:00.939Z,1.70
2022-09-28T19:36:30.288Z,1.80
2022-09-28T19:39:02.961Z,2.83
2022-09-28T19:41:44.554Z,1.60
2022-09-28T19:44:24.700Z,1.50
2022-09-28T19:46:55.426Z,2.03
2022-09-28T19:49:24.629Z,1.63
2022-09-28T19:52:14.396Z,1.45
2022-09-28T19:54:45.055Z,1.65
2022-09-28T19:57:16.169Z,1.67
2022-09-28T19:59:45.940Z,1.50
2022-09-28T20:02:16.750Z,1.63
2022-09-28T20:04:44.879Z,1.50
2022-09-28T20:07:13.550Z,1.70
2022-09-28T20:09:42.142Z,1.92
2022-09-28T20:12:10.507Z,1.67
2022-09-28T20:14:40.554Z,1.48
2022-09-28T20:17:08.976Z,1.45
2022-09-28T20:19:37.512Z,1.77
2022-09-28T20:22:05.797Z,1.27
2022-09-28T20:24:34.127Z,1.67
2022-09-28T20:27:02.960Z,1.88
2022-09-28T20:29:33.601Z,1.42
2022-09-28T20:32:04.215Z,1.85
2022-09-28T20:34:33.692Z,1.98
2022-09-28T20:37:01.925Z,2.05
2022-09-28T20:39:30.259Z,2.45
2022-09-28T20:41:58.490Z,1.55
2022-09-28T20:44:26.649Z,2.10
2022-09-28T20:46:55.492Z,1.67
2022-09-28T20:49:25.042Z,2.10
2022-09-28T20:51:53.321Z,1.92
2022-09-28T20:54:22.262Z,2.00
2022-09-28T20:56:50.467Z,2.55
2022-09-28T20:59:18.643Z,2.50
2022-09-28T21:01:46.846Z,2.17
2022-09-28T21:04:15.279Z,2.30
2022-09-28T21:06:45.213Z,2.80
2022-09-28T21:09:14.563Z,3.00
2022-09-28T21:11:43.121Z,4.10
2022-09-28T21:14:11.368Z,4.07
2022-09-28T21:16:40.083Z,3.83
2022-09-28T21:19:08.215Z,2.47
2022-09-28T21:21:36.352Z,2.38
2022-09-28T21:24:06.101Z,2.78
2022-09-28T21:26:35.290Z,2.30
2022-09-28T21:29:05.938Z,2.08
2022-09-28T21:31:40.004Z,2.17
2022-09-28T21:34:08.562Z,2.03
2022-09-28T21:36:36.773Z,1.85
2022-09-28T21:39:10.224Z,2.33
2022-09-28T21:41:39.002Z,1.85
2022-09-28T21:44:07.597Z,2.25
2022-09-28T21:46:36.615Z,2.35
2022-09-28T21:49:06.551Z,1.83
2022-09-28T21:51:35.374Z,1.73
2022-09-28T21:54:03.459Z,1.88
2022-09-28T21:56:33.079Z,2.33
2022-09-28T21:59:01.614Z,1.85
2022-09-28T22:01:29.892Z,1.55
2022-09-28T22:03:58.412Z,1.33
2022-09-28T22:06:28.415Z,1.55
2022-09-28T22:08:57.261Z,1.95
2022-09-28T22:11:27.368Z,1.90
2022-09-28T22:13:59.368Z,1.80
2022-09-28T22:16:29.871Z,2.17
2022-09-28T22:18:58.128Z,2.80
2022-09-28T22:21:28.022Z,2.53
2022-09-28T22:24:01.036Z,2.40
2022-09-28T22:26:30.578Z,2.10
2022-09-28T22:29:01.720Z,2.92
2022-09-28T22:31:32.500Z,2.50
2022-09-28T22:34:01.366Z,2.65
2022-09-28T22:36:30.051Z,2.70
2022-09-28T22:38:59.424Z,2.40
2022-09-28T22:41:28.495Z,2.08
2022-09-28T22:43:57.035Z,2.00
2022-09-28T22:46:28.045Z,2.53
2022-09-28T22:48:58.368Z,1.85
2022-09-28T22:51:28.985Z,2.55
2022-09-28T22:53:57.737Z,2.77
2022-09-28T22:56:26.127Z,1.80
2022-09-28T22:58:54.625Z,1.90
2022-09-28T23:01:24.617Z,1.80
2022-09-28T23:03:55.174Z,1.65
2022-09-28T23:06:24.973Z,1.55
2022-09-28T23:08:54.077Z,1.50
2022-09-28T23:11:22.614Z,1.80
2022-09-28T23:13:51.294Z,1.48
2022-09-28T23:16:20.242Z,1.38
2022-09-28T23:18:49.350Z,1.40
2022-09-28T23:21:20.768Z,1.63
2022-09-28T23:23:53.576Z,1.33
2022-09-28T23:26:24.139Z,1.15
2022-09-28T23:28:52.759Z,1.40
2022-09-28T23:31:23.113Z,1.42
2022-09-28T23:33:51.791Z,1.45
2022-09-28T23:36:21.289Z,2.03
2022-09-28T23:38:49.435Z,1.23
2022-09-28T23:41:17.637Z,1.88
2022-09-28T23:43:45.867Z,1.65
2022-09-28T23:46:17.245Z,1.45
2022-09-28T23:48:48.681Z,1.77
2022-09-28T23:51:16.869Z,1.45
2022-09-28T23:53:47.089Z,1.60
2022-09-28T23:56:15.718Z,1.77
2022-09-28T23:58:44.023Z,1.65
